createdAt,value
2019-05-02T00:00:53.577Z,100039.70
2019-05-02T00:03:24.298Z,100030.87
2019-05-02T00:05:53.111Z,100032.48
2019-05-02T00:08:22.732Z,100029.16
2019-05-02T00:10:51.985Z,100029.22
2019-05-02T00:13:20.777Z,100034.61
2019-05-02T00:15:51.050Z,100025.36
2019-05-02T00:18:20.610Z,100024.67
2019-05-02T00:20:49.342Z,100020.26
2019-05-02T00:23:18.250Z,100023.61
2019-05-02T00:25:47.266Z,100025.34
2019-05-02T00:28:17.542Z,100022.09
2019-05-02T00:30:46.350Z,100022.47
2019-05-02T00:33:15.030Z,100020.13
2019-05-02T00:35:46.089Z,100013.82
2019-05-02T00:38:14.183Z,100012.07
2019-05-02T00:40:42.873Z,100013.27
2019-05-02T00:43:11.603Z,100018.89
2019-05-02T00:45:40.263Z,100011.19
2019-05-02T00:48:14.415Z,100012.04
2019-05-02T00:50:45.430Z,100012.27
2019-05-02T00:53:13.604Z,100011.30
2019-05-02T00:55:42.252Z,100007.66
2019-05-02T00:58:11.007Z,100006.05
2019-05-02T01:00:59.842Z,100000.16
2019-05-02T01:03:31.982Z,99997.75
2019-05-02T01:06:00.127Z,99994.77
2019-05-02T01:08:31.004Z,99984.36
2019-05-02T01:10:59.292Z,99986.28
2019-05-02T01:13:28.008Z,99988.16
2019-05-02T01:15:56.671Z,99981.97
2019-05-02T01:18:25.454Z,99979.46
2019-05-02T01:20:58.250Z,99983.27
2019-05-02T01:23:27.564Z,99980.62
2019-05-02T01:25:54.960Z,99979.72
2019-05-02T01:28:42.688Z,99979.50
2019-05-02T01:31:20.214Z,99977.35
2019-05-02T01:34:00.209Z,99972.13
2019-05-02T01:36:36.753Z,99973.44
2019-05-02T01:39:07.600Z,99977.39
2019-05-02T01:41:35.691Z,99971.72
2019-05-02T01:44:04.765Z,99973.06
2019-05-02T01:46:33.456Z,99963.50
2019-05-02T01:49:02.124Z,99971.89
2019-05-02T01:51:30.791Z,99964.99
2019-05-02T01:53:59.486Z,99964.67
2019-05-02T01:56:28.598Z,99964.08
2019-05-02T01:58:58.956Z,99969.57
2019-05-02T02:01:27.951Z,99967.56
2019-05-02T02:03:56.625Z,99965.13
2019-05-02T02:06:25.297Z,99964.11
2019-05-02T02:08:53.956Z,99960.70
2019-05-02T02:11:22.721Z,99958.26
2019-05-02T02:13:51.380Z,99957.86
2019-05-02T02:16:20.067Z,99956.58
2019-05-02T02:18:59.036Z,99957.61
2019-05-02T02:21:48.286Z,99951.98
2019-05-02T02:24:27.261Z,99951.97
2019-05-02T02:26:56.525Z,99953.41
2019-05-02T02:29:25.199Z,99955.43
2019-05-02T02:31:53.945Z,99952.14
2019-05-02T02:34:29.000Z,99948.56
2019-05-02T02:36:53.353Z,99946.72
2019-05-02T02:39:22.019Z,99954.63
2019-05-02T02:41:52.153Z,99938.53
2019-05-02T02:44:39.849Z,99946.66
2019-05-02T02:47:12.096Z,99945.19
2019-05-02T02:49:36.952Z,99940.45
2019-05-02T02:52:06.878Z,99944.80
2019-05-02T02:54:36.575Z,99934.06
2019-05-02T02:57:06.109Z,99936.06
2019-05-02T02:59:34.757Z,99942.77
2019-05-02T03:02:10.093Z,99942.95
2019-05-02T03:04:33.897Z,99935.81
2019-05-02T03:07:02.560Z,99935.38
2019-05-02T03:09:31.370Z,99936.89
2019-05-02T03:12:18.073Z,99940.67
2019-05-02T03:14:51.365Z,99932.73
2019-05-02T03:17:26.112Z,99936.80
2019-05-02T03:19:54.488Z,99933.94
2019-05-02T03:22:20.467Z,99927.84
2019-05-02T03:24:49.154Z,99927.23
2019-05-02T03:27:18.030Z,99920.40
2019-05-02T03:29:46.789Z,99919.69
2019-05-02T03:32:30.654Z,99913.88
2019-05-02T03:34:52.521Z,99920.22
2019-05-02T03:37:17.740Z,99911.76
2019-05-02T03:39:49.639Z,99912.86
2019-05-02T03:42:17.645Z,99916.30
2019-05-02T03:44:55.071Z,99905.81
2019-05-02T03:47:16.776Z,99905.73
2019-05-02T03:49:48.894Z,99914.27
2019-05-02T03:52:16.090Z,99911.99
2019-05-02T03:54:50.127Z,99906.42
2019-05-02T03:57:15.507Z,99920.14
2019-05-02T03:59:44.189Z,99913.04
2019-05-02T04:02:13.993Z,99913.92
2019-05-02T04:04:43.892Z,99915.47
2019-05-02T04:07:12.857Z,99912.82
2019-05-02T04:09:42.597Z,99917.50
2019-05-02T04:12:18.513Z,99916.57
2019-05-02T04:14:42.576Z,99917.37
2019-05-02T04:17:12.010Z,99914.64
2019-05-02T04:19:41.616Z,99921.77
2019-05-02T04:22:12.068Z,99920.76
2019-05-02T04:24:47.332Z,99917.50
2019-05-02T04:27:13.100Z,99917.80
2019-05-02T04:29:42.563Z,99917.63
2019-05-02T04:32:14.156Z,99920.92
2019-05-02T04:34:41.693Z,99926.95
2019-05-02T04:37:10.412Z,99926.56
2019-05-02T04:39:39.343Z,99928.31
2019-05-02T04:42:13.349Z,99917.61
2019-05-02T04:44:46.391Z,99920.38
2019-05-02T04:47:16.604Z,99921.58
2019-05-02T04:49:39.520Z,99920.00
2019-05-02T04:52:12.453Z,99918.91
2019-05-02T04:54:39.065Z,99921.34
2019-05-02T04:57:08.690Z,99919.13
2019-05-02T04:59:39.561Z,99914.59
2019-05-02T05:02:08.977Z,99917.72
2019-05-02T05:04:42.339Z,99907.09
2019-05-02T05:07:09.290Z,99915.78
2019-05-02T05:09:39.870Z,99906.61
2019-05-02T05:12:08.826Z,99909.26
2019-05-02T05:14:41.292Z,99911.12
2019-05-02T05:17:08.114Z,99906.03
2019-05-02T05:19:37.349Z,99907.71
2019-05-02T05:22:08.854Z,99910.47
2019-05-02T05:24:44.963Z,99913.26
2019-05-02T05:27:18.990Z,99909.06
2019-05-02T05:29:45.999Z,99914.50
2019-05-02T05:32:14.761Z,99913.98
2019-05-02T05:34:43.447Z,99911.23
2019-05-02T05:37:13.536Z,99908.63
2019-05-02T05:39:43.048Z,99913.22
2019-05-02T05:42:12.767Z,99921.11
2019-05-02T05:44:41.426Z,99909.48
2019-05-02T05:47:12.120Z,99913.26
2019-05-02T05:49:40.500Z,99908.65
2019-05-02T05:52:09.267Z,99913.59
2019-05-02T05:54:41.889Z,99904.23
2019-05-02T05:57:12.233Z,99906.05
2019-05-02T05:59:38.737Z,99907.38
2019-05-02T06:02:12.679Z,99908.05
2019-05-02T06:04:38.701Z,99907.69
2019-05-02T06:07:07.629Z,99902.47
2019-05-02T06:09:36.368Z,99902.10
2019-05-02T06:12:05.071Z,99904.22
2019-05-02T06:14:34.538Z,99898.41
2019-05-02T06:17:03.550Z,99898.78
2019-05-02T06:19:32.255Z,99892.03
2019-05-02T06:22:01.020Z,99898.78
2019-05-02T06:24:29.680Z,99892.35
2019-05-02T06:26:58.368Z,99884.44
2019-05-02T06:29:27.075Z,99885.00
2019-05-02T06:31:57.325Z,99884.80
2019-05-02T06:34:26.268Z,99875.53
2019-05-02T06:36:54.960Z,99875.92
2019-05-02T06:39:27.060Z,99869.91
2019-05-02T06:41:57.551Z,99882.23
2019-05-02T06:44:25.434Z,99868.08
2019-05-02T06:46:54.183Z,99869.36
2019-05-02T06:49:24.895Z,99867.66
2019-05-02T06:51:56.231Z,99861.38
2019-05-02T06:54:24.142Z,99860.69
2019-05-02T06:56:52.879Z,99863.27
2019-05-02T06:59:21.623Z,99863.80
2019-05-02T07:01:52.402Z,99858.20
2019-05-02T07:04:22.775Z,99860.32
2019-05-02T07:06:58.845Z,99864.18
2019-05-02T07:09:21.942Z,99863.43
2019-05-02T07:11:57.852Z,99864.13
2019-05-02T07:14:23.433Z,99854.95
2019-05-02T07:17:05.829Z,99855.66
2019-05-02T07:19:37.697Z,99853.92
2019-05-02T07:22:06.439Z,99842.42
2019-05-02T07:24:35.197Z,99853.83
2019-05-02T07:27:04.151Z,99855.14
2019-05-02T07:29:32.824Z,99858.38
2019-05-02T07:32:01.500Z,99859.05
2019-05-02T07:34:30.216Z,99858.28
2019-05-02T07:36:58.856Z,99864.86
2019-05-02T07:39:27.584Z,99853.89
2019-05-02T07:42:00.456Z,99848.95
2019-05-02T07:44:27.170Z,99859.96
2019-05-02T07:47:02.607Z,99854.31
2019-05-02T07:49:32.152Z,99852.17
2019-05-02T07:51:58.950Z,99858.56
2019-05-02T07:54:27.646Z,99859.14
2019-05-02T07:56:56.335Z,99856.37
2019-05-02T07:59:25.144Z,99858.69
2019-05-02T08:01:53.993Z,99861.82
2019-05-02T08:04:22.701Z,99854.35
2019-05-02T08:06:51.377Z,99853.34
2019-05-02T08:09:20.036Z,99852.66
2019-05-02T08:11:48.829Z,99846.69
2019-05-02T08:14:17.550Z,99842.83
2019-05-02T08:16:46.199Z,99845.95
2019-05-02T08:19:14.876Z,99846.02
2019-05-02T08:21:43.590Z,99846.92
2019-05-02T08:24:12.244Z,99853.92
2019-05-02T08:26:59.721Z,99860.82
2019-05-02T08:29:29.266Z,99848.30
2019-05-02T08:31:58.825Z,99843.67
2019-05-02T08:34:32.273Z,99863.48
2019-05-02T08:37:03.225Z,99863.31
2019-05-02T08:39:33.951Z,99857.67
2019-05-02T08:42:02.615Z,99855.90
2019-05-02T08:44:31.285Z,99847.46
2019-05-02T08:47:00.994Z,99854.22
2019-05-02T08:49:31.122Z,99862.13
2019-05-02T08:52:01.249Z,99866.34
2019-05-02T08:54:32.812Z,99856.05
2019-05-02T08:57:01.334Z,99859.50
2019-05-02T08:59:30.009Z,99869.10
2019-05-02T09:01:58.672Z,99856.55
2019-05-02T09:04:29.058Z,99855.67
2019-05-02T09:07:00.500Z,99859.67
2019-05-02T09:09:29.529Z,99851.59
2019-05-02T09:12:09.720Z,99849.44
2019-05-02T09:14:28.751Z,99860.17
2019-05-02T09:17:00.321Z,99850.96
2019-05-02T09:19:27.833Z,99863.03
2019-05-02T09:21:56.492Z,99857.72
2019-05-02T09:24:25.177Z,99853.58
2019-05-02T09:26:53.838Z,99855.09
2019-05-02T09:29:22.511Z,99851.84
2019-05-02T09:31:52.751Z,99846.98
2019-05-02T09:34:22.790Z,99850.42
2019-05-02T09:36:52.912Z,99846.55
2019-05-02T09:39:22.689Z,99846.69
2019-05-02T09:41:52.731Z,99850.67
2019-05-02T09:44:22.377Z,99847.05
2019-05-02T09:46:55.209Z,99846.84
2019-05-02T09:49:22.141Z,99845.16
2019-05-02T09:51:59.200Z,99841.09
2019-05-02T09:54:23.162Z,99842.13
2019-05-02T09:56:52.477Z,99839.05
2019-05-02T09:59:27.774Z,99844.48
2019-05-02T10:01:53.643Z,99838.91
2019-05-02T10:04:22.520Z,99840.56
2019-05-02T10:06:52.518Z,99840.27
2019-05-02T10:09:24.088Z,99833.95
2019-05-02T10:11:52.571Z,99832.94
2019-05-02T10:14:22.713Z,99830.00
2019-05-02T10:16:52.931Z,99829.93
2019-05-02T10:19:25.881Z,99828.70
2019-05-02T10:21:56.172Z,99823.38
2019-05-02T10:24:22.874Z,99828.27
2019-05-02T10:26:55.268Z,99819.80
2019-05-02T10:29:28.151Z,99812.96
2019-05-02T10:31:52.778Z,99810.44
2019-05-02T10:34:22.603Z,99809.60
2019-05-02T10:36:58.591Z,99806.40
2019-05-02T10:39:23.416Z,99795.42
2019-05-02T10:41:52.724Z,99793.84
2019-05-02T10:44:22.701Z,99794.62
2019-05-02T10:46:56.158Z,99791.34
2019-05-02T10:49:32.128Z,99783.58
2019-05-02T10:52:02.610Z,99774.06
2019-05-02T10:54:33.675Z,99783.53
2019-05-02T10:57:02.363Z,99780.97
2019-05-02T10:59:32.785Z,99769.75
2019-05-02T11:02:19.642Z,99766.34
2019-05-02T11:04:52.437Z,99771.25
2019-05-02T11:07:22.643Z,99764.23
2019-05-02T11:09:52.593Z,99762.83
2019-05-02T11:12:44.485Z,99757.91
2019-05-02T11:15:26.903Z,99752.50
2019-05-02T11:17:55.603Z,99747.37
2019-05-02T11:20:24.269Z,99740.93
2019-05-02T11:22:54.636Z,99733.28
2019-05-02T11:25:23.464Z,99729.03
2019-05-02T11:27:52.609Z,99723.17
2019-05-02T11:30:26.374Z,99715.05
2019-05-02T11:32:52.157Z,99718.33
2019-05-02T11:35:22.367Z,99703.77
2019-05-02T11:37:51.726Z,99703.52
2019-05-02T11:40:22.683Z,99706.13
2019-05-02T11:42:52.173Z,99688.39
2019-05-02T11:45:22.709Z,99689.06
2019-05-02T11:47:54.445Z,99697.67
2019-05-02T11:50:22.146Z,99683.52
2019-05-02T11:52:52.324Z,99689.71
2019-05-02T11:55:24.752Z,99689.22
2019-05-02T11:57:52.370Z,99682.94
2019-05-02T12:00:21.849Z,99676.53
2019-05-02T12:02:58.861Z,99675.39
2019-05-02T12:05:35.651Z,99690.77
2019-05-02T12:08:07.713Z,99665.34
2019-05-02T12:10:36.619Z,99668.85
2019-05-02T12:13:06.707Z,99672.84
2019-05-02T12:15:35.658Z,99666.97
2019-05-02T12:18:04.777Z,99669.72
2019-05-02T12:20:36.591Z,99668.21
2019-05-02T12:23:03.928Z,99660.95
2019-05-02T12:25:32.894Z,99653.11
2019-05-02T12:28:02.348Z,99651.60
2019-05-02T12:30:34.085Z,99651.08
2019-05-02T12:33:03.932Z,99647.42
2019-05-02T12:35:32.622Z,99645.80
2019-05-02T12:38:02.718Z,99648.20
2019-05-02T12:40:32.586Z,99637.47
2019-05-02T12:43:02.463Z,99635.81
2019-05-02T12:45:33.587Z,99640.13
2019-05-02T12:48:02.426Z,99638.24
2019-05-02T12:50:32.206Z,99635.17
2019-05-02T12:53:02.792Z,99628.12
2019-05-02T12:55:32.607Z,99631.46
2019-05-02T12:58:03.099Z,99632.45
2019-05-02T13:00:32.126Z,99625.27
2019-05-02T13:03:12.236Z,99620.57
2019-05-02T13:05:42.603Z,99630.66
2019-05-02T13:08:12.303Z,99618.50
2019-05-02T13:11:06.634Z,99606.79
2019-05-02T13:13:33.224Z,99596.42
2019-05-02T13:16:03.756Z,99598.86
2019-05-02T13:18:36.326Z,99597.75
2019-05-02T13:21:08.123Z,99599.63
2019-05-02T13:23:44.286Z,99608.47
2019-05-02T13:26:19.805Z,99592.22
2019-05-02T13:28:44.181Z,99599.62
2019-05-02T13:31:23.354Z,99590.19
2019-05-02T13:33:58.722Z,99583.08
2019-05-02T13:36:44.040Z,99590.67
2019-05-02T13:39:22.072Z,99582.86
2019-05-02T13:41:52.180Z,99585.80
2019-05-02T13:44:24.652Z,99577.56
2019-05-02T13:46:53.621Z,99575.22
2019-05-02T13:49:22.452Z,99572.47
2019-05-02T13:51:52.109Z,99596.83
2019-05-02T13:54:22.085Z,99565.44
2019-05-02T13:56:52.899Z,99570.51
2019-05-02T13:59:22.464Z,99567.61
2019-05-02T14:01:55.890Z,99562.89
2019-05-02T14:04:27.691Z,99556.20
2019-05-02T14:06:58.904Z,99561.66
2019-05-02T14:09:52.694Z,99547.48
2019-05-02T14:12:27.221Z,99547.34
2019-05-02T14:14:58.657Z,99550.97
2019-05-02T14:17:32.448Z,99555.49
2019-05-02T14:20:10.450Z,99548.16
2019-05-02T14:22:33.847Z,99554.14
2019-05-02T14:25:04.140Z,99542.59
2019-05-02T14:27:34.680Z,99548.38
2019-05-02T14:30:06.192Z,99541.23
2019-05-02T14:32:36.115Z,99538.80
2019-05-02T14:35:32.600Z,99540.73
2019-05-02T14:38:17.610Z,99549.97
2019-05-02T14:40:58.796Z,99544.00
2019-05-02T14:43:48.356Z,99539.89
2019-05-02T14:46:22.140Z,99530.97
2019-05-02T14:48:52.782Z,99531.18
2019-05-02T14:51:27.567Z,99523.17
2019-05-02T14:53:57.394Z,99527.28
2019-05-02T14:56:45.911Z,99516.95
2019-05-02T14:59:17.902Z,99520.59
2019-05-02T15:01:46.734Z,99514.17
2019-05-02T15:04:17.529Z,99530.38
2019-05-02T15:06:49.518Z,99521.51
2019-05-02T15:09:24.829Z,99521.02
2019-05-02T15:12:02.397Z,99501.36
2019-05-02T15:14:37.491Z,99510.34
2019-05-02T15:17:09.546Z,99507.12
2019-05-02T15:19:39.565Z,99509.58
2019-05-02T15:22:12.460Z,99517.00
2019-05-02T15:24:42.433Z,99510.95
2019-05-02T15:27:17.690Z,99511.02
2019-05-02T15:29:44.091Z,99503.30
2019-05-02T15:32:28.354Z,99512.16
2019-05-02T15:35:02.997Z,99510.61
2019-05-02T15:37:32.218Z,99542.03
2019-05-02T15:42:34.189Z,99533.88
2019-05-02T15:45:05.644Z,99537.27
2019-05-02T15:47:37.126Z,99540.24
2019-05-02T15:50:04.261Z,99544.55
2019-05-02T15:52:34.705Z,99550.73
2019-05-02T15:55:04.273Z,99549.63
2019-05-02T15:57:43.076Z,99548.89
2019-05-02T16:00:03.921Z,99557.38
2019-05-02T16:02:32.966Z,99547.73
2019-05-02T16:05:05.074Z,99555.97
2019-05-02T16:07:32.634Z,99551.68
2019-05-02T16:10:03.849Z,99568.44
2019-05-02T16:12:35.960Z,99559.06
2019-05-02T16:15:08.419Z,99555.51
2019-05-02T16:17:33.437Z,99557.00
2019-05-02T16:20:10.835Z,99563.70
2019-05-02T16:22:46.238Z,99558.29
2019-05-02T16:25:12.209Z,99562.47
2019-05-02T16:27:47.757Z,99562.33
2019-05-02T16:30:19.181Z,99555.52
2019-05-02T16:32:52.431Z,99550.11
2019-05-02T16:35:22.167Z,99560.86
2019-05-02T16:37:52.305Z,99551.81
2019-05-02T16:40:29.783Z,99557.50
2019-05-02T16:42:53.767Z,99552.06
2019-05-02T16:45:23.282Z,99557.85
2019-05-02T16:47:58.800Z,99557.20
2019-05-02T16:50:23.059Z,99558.16
2019-05-02T16:52:53.356Z,99555.09
2019-05-02T16:55:26.623Z,99554.50
2019-05-02T16:57:56.860Z,99546.20
2019-05-02T17:00:25.571Z,99550.80
2019-05-02T17:02:54.301Z,99543.91
2019-05-02T17:05:23.109Z,99543.41
2019-05-02T17:08:18.621Z,99540.53
2019-05-02T17:10:53.793Z,99535.75
2019-05-02T17:13:21.463Z,99527.62
2019-05-02T17:15:50.025Z,99537.33
2019-05-02T17:18:18.713Z,99540.71
2019-05-02T17:20:53.538Z,99536.42
2019-05-02T17:23:17.871Z,99547.81
2019-05-02T17:25:46.647Z,99543.24
2019-05-02T17:28:15.322Z,99550.97
2019-05-02T17:30:44.061Z,99546.69
2019-05-02T17:33:16.069Z,99545.16
2019-05-02T17:35:49.300Z,99537.47
2019-05-02T17:38:13.899Z,99544.44
2019-05-02T17:40:42.561Z,99542.86
2019-05-02T17:43:11.450Z,99538.01
2019-05-02T17:45:40.262Z,99540.71
2019-05-02T17:48:15.704Z,99547.64
2019-05-02T17:51:12.451Z,99539.95
2019-05-02T17:53:48.107Z,99544.23
2019-05-02T17:56:20.304Z,99548.44
2019-05-02T17:58:47.455Z,99542.37
2019-05-02T18:01:18.879Z,99535.72
2019-05-02T18:03:47.557Z,99540.50
2019-05-02T18:06:17.389Z,99543.16
2019-05-02T18:08:50.631Z,99537.33
2019-05-02T18:11:16.482Z,99534.38
2019-05-02T18:13:45.167Z,99532.77
2019-05-02T18:16:16.615Z,99530.94
2019-05-02T18:18:46.773Z,99534.42
2019-05-02T18:21:17.747Z,99533.05
2019-05-02T18:23:45.139Z,99537.58
2019-05-02T18:26:13.813Z,99539.70
2019-05-02T18:28:49.066Z,99541.03
2019-05-02T18:31:12.968Z,99542.66
2019-05-02T18:33:42.574Z,99555.91
2019-05-02T18:36:11.341Z,99549.30
2019-05-02T18:38:41.716Z,99554.58
2019-05-02T18:41:12.057Z,99556.45
2019-05-02T18:43:45.093Z,99560.94
2019-05-02T18:46:12.756Z,99563.06
2019-05-02T18:48:45.768Z,99553.71
2019-05-02T18:51:17.247Z,99560.41
2019-05-02T18:53:43.025Z,99561.95
2019-05-02T18:56:12.452Z,99562.73
2019-05-02T18:58:45.190Z,99565.68
2019-05-02T19:01:14.014Z,99571.75
2019-05-02T19:03:42.308Z,99571.20
2019-05-02T19:06:11.699Z,99574.98
2019-05-02T19:08:46.631Z,99569.83
2019-05-02T19:11:14.168Z,99577.32
2019-05-02T19:13:44.429Z,99583.42
2019-05-02T19:16:13.362Z,99570.80
2019-05-02T19:18:42.517Z,99573.15
2019-05-02T19:21:12.527Z,99574.39
2019-05-02T19:23:42.608Z,99567.20
2019-05-02T19:26:14.977Z,99572.48
2019-05-02T19:28:48.296Z,99574.69
2019-05-02T19:31:16.955Z,99577.89
2019-05-02T19:33:45.698Z,99575.81
2019-05-02T19:36:16.471Z,99573.15
2019-05-02T19:38:44.889Z,99573.90
2019-05-02T19:41:13.648Z,99579.80
2019-05-02T19:43:49.443Z,99581.42
2019-05-02T19:46:12.775Z,99568.83
2019-05-02T19:48:43.074Z,99580.14
2019-05-02T19:51:18.683Z,99588.41
2019-05-02T19:53:42.675Z,99589.70
2019-05-02T19:56:12.770Z,99589.20
2019-05-02T19:58:46.475Z,99589.70
2019-05-02T20:01:12.659Z,99591.84
2019-05-02T20:03:42.440Z,99584.75
2019-05-02T20:06:12.816Z,99580.67
2019-05-02T20:08:42.022Z,99582.25
2019-05-02T20:11:12.608Z,99595.80
2019-05-02T20:13:41.420Z,99583.58
2019-05-02T20:16:19.355Z,99586.11
2019-05-02T20:18:48.036Z,99579.67
2019-05-02T20:21:27.398Z,99590.10
2019-05-02T20:23:52.475Z,99599.78
2019-05-02T20:26:22.141Z,99587.86
2019-05-02T20:28:52.806Z,99593.48
2019-05-02T20:31:21.742Z,99589.73
2019-05-02T20:33:52.006Z,99596.05
2019-05-02T20:36:22.704Z,99599.50
2019-05-02T20:38:52.566Z,99593.55
2019-05-02T20:41:22.422Z,99590.50
2019-05-02T20:43:51.673Z,99595.38
2019-05-02T20:46:21.835Z,99588.14
2019-05-02T20:48:52.554Z,99591.05
2019-05-02T20:51:22.781Z,99590.10
2019-05-02T20:53:52.557Z,99599.70
2019-05-02T20:56:23.055Z,99596.20
2019-05-02T20:58:52.689Z,99597.20
2019-05-02T21:01:21.810Z,99600.59
2019-05-02T21:03:52.176Z,99595.43
2019-05-02T21:06:46.245Z,99605.97
2019-05-02T21:09:37.192Z,99593.56
2019-05-02T21:12:07.237Z,99597.75
2019-05-02T21:14:36.087Z,99601.93
2019-05-02T21:17:05.087Z,99597.20
2019-05-02T21:19:33.878Z,99601.64
2019-05-02T21:22:07.301Z,99599.11
2019-05-02T21:24:36.073Z,99593.17
2019-05-02T21:27:04.872Z,99599.02
2019-05-02T21:29:33.537Z,99600.83
2019-05-02T21:32:02.291Z,99608.45
2019-05-02T21:34:31.832Z,99610.56
2019-05-02T21:37:02.468Z,99608.41
2019-05-02T21:39:31.905Z,99607.78
2019-05-02T21:42:02.343Z,99605.72
2019-05-02T21:44:31.614Z,99624.42
2019-05-02T21:47:02.479Z,99636.42
2019-05-02T21:49:42.990Z,99629.70
2019-05-02T21:52:27.324Z,99645.09
2019-05-02T21:55:06.377Z,99647.27
2019-05-02T21:57:35.023Z,99640.09
2019-05-02T22:00:05.907Z,99647.40
2019-05-02T22:02:34.733Z,99646.78
2019-05-02T22:05:03.759Z,99654.83
2019-05-02T22:07:32.446Z,99653.22
2019-05-02T22:10:02.982Z,99658.51
2019-05-02T22:12:31.842Z,99663.09
2019-05-02T22:15:02.321Z,99665.05
2019-05-02T22:17:32.264Z,99666.70
2019-05-02T22:20:01.807Z,99666.23
2019-05-02T22:22:32.125Z,99664.22
2019-05-02T22:25:02.209Z,99657.92
2019-05-02T22:27:32.505Z,99663.45
2019-05-02T22:30:02.090Z,99669.85
2019-05-02T22:32:32.130Z,99673.61
2019-05-02T22:35:01.813Z,99678.91
2019-05-02T22:37:32.615Z,99691.03
2019-05-02T22:40:05.162Z,99682.99
2019-05-02T22:42:33.811Z,99684.02
2019-05-02T22:45:04.629Z,99682.05
2019-05-02T22:47:32.857Z,99687.92
2019-05-02T22:50:01.509Z,99697.83
2019-05-02T22:52:32.153Z,99700.78
2019-05-02T22:55:02.862Z,99701.64
2019-05-02T22:57:31.831Z,99703.34
2019-05-02T23:00:01.930Z,99701.33
2019-05-02T23:02:32.481Z,99701.16
2019-05-02T23:05:01.934Z,99698.75
2019-05-02T23:07:30.887Z,99695.87
2019-05-02T23:09:59.543Z,99704.91
2019-05-02T23:12:28.221Z,99702.00
2019-05-02T23:14:56.916Z,99708.09
2019-05-02T23:17:25.558Z,99711.27
2019-05-02T23:19:54.207Z,99710.03
2019-05-02T23:22:22.886Z,99710.19
2019-05-02T23:25:09.374Z,99713.86
2019-05-02T23:27:45.153Z,99717.11
2019-05-02T23:30:16.973Z,99713.37
2019-05-02T23:32:45.625Z,99716.44
2019-05-02T23:35:15.158Z,99715.48
2019-05-02T23:37:43.830Z,99721.81
2019-05-02T23:40:12.694Z,99714.62
2019-05-02T23:42:41.774Z,99717.99
2019-05-02T23:45:12.121Z,99713.52
2019-05-02T23:47:42.157Z,99718.36
2019-05-02T23:50:12.133Z,99711.97
2019-05-02T23:52:40.948Z,99724.46
2019-05-02T23:55:09.766Z,99717.50
2019-05-02T23:57:38.518Z,99718.36
